Aeroporto :
LOGIN :

Iscrizione | Disclaimer

   EN    FR    IT 

 










Sommario :    VFR   VFR Marginale   IFR   IFR Intensivo   IFR Molto Intensivo
Visibilità : 
Base nubi : 
>= 8 km
>= 3000ft
5 / 8 km
1000 / 3000 ft
1500m / 5 km
500 / 1000 ft
800 / 1500m
200 / 500 ft
< 800m
< 200 ft
Simboli :   Temporali  Nebbia  Neve Forte  Precipitazioni Forti  Vento > 20 kt
SIGMETs :   Varie  Temporali  Ghiacco  Turbolenza  Onda orograficha  Ceneri Vulcaniche







- Altitudine del aeroporto : 142 ft
- Codice IATA : FLR


LIRQ - Firenze Amerigo Vespucci

ULTIMO METAR :
  • 181550Z 10009KT 050V130 9999 FEW040 BKN080 12/07 Q1013

METARs OBSOLETI :
  • 181520Z VRB03KT 9999 FEW040 BKN080 13/06 Q1013
  • 181450Z 10007KT 040V170 9999 FEW040 BKN080 13/06 Q1013
  • 181420Z VRB06KT 9999 SCT040 BKN075 13/06 Q1012
  • 181350Z 10007KT 050V150 9999 SCT040 BKN070 13/07 Q1013
  • 181320Z VRB03KT 9999 FEW020 BKN070 13/08 Q1012

TAF TAF LIRQ
Valido dal 18 a 12 ore il 19 a 12 ore UTC


181100Z 1812/1912 VRB05KT 9999 SCT020 BKN040
TEMPO 1812/1821 RA
BECMG 1818/1820 04012KT
Nessun NOTAM noto per questo aeroporto.



MetMap, La meteo Aeronautica in un colpo d'occhio ! - Copyright ORBIFLY Dicembre 2007 - Disclaimer

ORBIFLY MET'MAP TEAM :

Programmazione e sviluppo : Alexandra Zaïnal
Concezione e sviluppo : Baudouin d'Aumeries
Co-Programmazione e sviluppo : Marc-Olivier Méhu
Supporto tecnico e logistico : Manuel Goepfert
Aiuto per la traduzione : Arnaldo La Scala

Contatto : metmap@orbifly.com




FONTI E CREDITI :

   NOAA